createdAt,value
2019-03-16T00:01:17.973Z,99463.45
2019-03-16T00:03:49.178Z,99484.28
2019-03-16T00:06:20.133Z,99464.84
2019-03-16T00:08:51.079Z,99467.47
2019-03-16T00:11:21.962Z,99467.58
2019-03-16T00:13:53.219Z,99483.61
2019-03-16T00:16:24.127Z,99467.11
2019-03-16T00:18:55.106Z,99470.92
2019-03-16T00:21:26.466Z,99461.02
2019-03-16T00:23:57.310Z,99472.42
2019-03-16T00:26:39.322Z,99483.42
2019-03-16T00:29:11.636Z,99483.90
2019-03-16T00:31:42.963Z,99489.23
2019-03-16T00:34:14.138Z,99489.59
2019-03-16T00:36:45.566Z,99497.32
2019-03-16T00:39:16.512Z,99512.69
2019-03-16T00:41:47.374Z,99508.30
2019-03-16T00:44:18.263Z,99508.02
2019-03-16T00:46:49.631Z,99490.75
2019-03-16T00:49:21.819Z,99504.63
2019-03-16T00:51:52.696Z,99500.21
2019-03-16T00:54:23.692Z,99508.46
2019-03-16T00:56:54.537Z,99517.86
2019-03-16T00:59:25.430Z,99518.67
2019-03-16T01:01:56.885Z,99506.02
2019-03-16T01:04:28.632Z,99512.69
2019-03-16T01:06:59.894Z,99516.19
2019-03-16T01:09:30.805Z,99525.98
2019-03-16T01:12:02.072Z,99529.55
2019-03-16T01:14:32.926Z,99527.55
2019-03-16T01:17:04.184Z,99535.36
2019-03-16T01:19:35.416Z,99535.25
2019-03-16T01:22:07.089Z,99540.86
2019-03-16T01:24:37.929Z,99543.78
2019-03-16T01:27:09.606Z,99543.27
2019-03-16T01:29:40.525Z,99548.41
2019-03-16T01:32:11.709Z,99556.36
2019-03-16T01:34:44.330Z,99550.97
2019-03-16T01:37:15.425Z,99567.67
2019-03-16T01:39:46.872Z,99564.46
2019-03-16T01:42:17.983Z,99571.23
2019-03-16T01:44:49.119Z,99563.22
2019-03-16T01:47:19.957Z,99568.76
2019-03-16T01:49:50.981Z,99567.55
2019-03-16T01:52:21.939Z,99570.10
2019-03-16T01:54:53.187Z,99567.73
2019-03-16T01:57:24.378Z,99568.67
2019-03-16T01:59:55.553Z,99575.85
2019-03-16T02:02:32.617Z,99570.35
2019-03-16T02:05:07.636Z,99575.13
2019-03-16T02:07:38.720Z,99575.89
2019-03-16T02:10:09.922Z,99573.02
2019-03-16T02:12:40.814Z,99576.84
2019-03-16T02:15:11.843Z,99587.71
2019-03-16T02:17:42.703Z,99586.03
2019-03-16T02:20:13.936Z,99588.11
2019-03-16T02:22:46.382Z,99590.16
2019-03-16T02:25:17.339Z,99587.71
2019-03-16T02:27:48.436Z,99597.13
2019-03-16T02:30:19.444Z,99593.01
2019-03-16T02:32:50.305Z,99603.98
2019-03-16T02:35:21.402Z,99595.70
2019-03-16T02:37:53.053Z,99601.06
2019-03-16T02:40:26.067Z,99603.98
2019-03-16T02:42:57.022Z,99612.11
2019-03-16T02:45:28.174Z,99617.83
2019-03-16T02:47:59.765Z,99617.73
2019-03-16T02:50:31.013Z,99629.59
2019-03-16T02:53:03.288Z,99626.48
2019-03-16T02:55:34.237Z,99627.62
2019-03-16T02:58:05.427Z,99627.79
2019-03-16T03:00:37.018Z,99634.95
2019-03-16T03:03:08.630Z,99639.61
2019-03-16T03:05:39.642Z,99642.60
2019-03-16T03:08:10.920Z,99641.77
2019-03-16T03:10:41.748Z,99650.18
2019-03-16T03:13:13.836Z,99640.09
2019-03-16T03:15:45.056Z,99644.75
2019-03-16T03:18:17.035Z,99656.92
2019-03-16T03:20:47.869Z,99661.70
2019-03-16T03:23:18.892Z,99667.38
2019-03-16T03:25:50.321Z,99665.86
2019-03-16T03:28:21.446Z,99670.41
2019-03-16T03:30:52.696Z,99663.97
2019-03-16T03:33:23.536Z,99682.53
2019-03-16T03:35:54.440Z,99684.85
2019-03-16T03:38:25.730Z,99690.23
2019-03-16T03:41:01.227Z,99688.18
2019-03-16T03:43:29.740Z,99700.19
2019-03-16T03:46:01.012Z,99711.64
2019-03-16T03:48:32.099Z,99728.00
2019-03-16T03:51:03.438Z,99717.80
2019-03-16T03:53:34.749Z,99715.81
2019-03-16T03:56:05.669Z,99711.09
2019-03-16T03:58:36.630Z,99715.00
2019-03-16T04:01:07.602Z,99714.64
2019-03-16T04:03:38.795Z,99720.77
2019-03-16T04:06:09.966Z,99730.62
2019-03-16T04:08:41.212Z,99726.08
2019-03-16T04:11:12.077Z,99724.47
2019-03-16T04:13:42.941Z,99719.39
2019-03-16T04:16:13.845Z,99718.52
2019-03-16T04:18:45.162Z,99721.14
2019-03-16T04:21:16.117Z,99715.22
2019-03-16T04:23:47.497Z,99714.91
2019-03-16T04:26:19.176Z,99710.81
2019-03-16T04:28:50.454Z,99719.02
2019-03-16T04:31:21.291Z,99727.20
2019-03-16T04:33:52.131Z,99731.54
2019-03-16T04:36:23.239Z,99732.69
2019-03-16T04:38:54.078Z,99725.31
2019-03-16T04:41:25.075Z,99737.09
2019-03-16T04:43:56.181Z,99740.09
2019-03-16T04:46:27.033Z,99741.03
2019-03-16T04:48:58.137Z,99748.53
2019-03-16T04:51:29.474Z,99744.33
2019-03-16T04:54:00.668Z,99749.97
2019-03-16T04:56:31.717Z,99740.11
2019-03-16T04:59:02.840Z,99741.50
2019-03-16T05:01:33.783Z,99744.52
2019-03-16T05:04:04.819Z,99741.49
2019-03-16T05:06:35.699Z,99757.40
2019-03-16T05:09:07.495Z,99757.70
2019-03-16T05:11:38.825Z,99765.64
2019-03-16T05:14:10.762Z,99774.38
2019-03-16T05:16:42.699Z,99768.53
2019-03-16T05:19:13.625Z,99764.66
2019-03-16T05:21:44.523Z,99770.98
2019-03-16T05:24:15.471Z,99764.59
2019-03-16T05:26:46.523Z,99777.00
2019-03-16T05:29:17.452Z,99779.55
2019-03-16T05:31:50.682Z,99778.86
2019-03-16T05:34:21.126Z,99781.02
2019-03-16T05:36:52.050Z,99777.47
2019-03-16T05:39:23.570Z,99783.95
2019-03-16T05:41:55.181Z,99787.02
2019-03-16T05:44:26.125Z,99781.34
2019-03-16T05:46:58.026Z,99783.35
2019-03-16T05:49:29.184Z,99784.80
2019-03-16T05:52:00.040Z,99784.42
2019-03-16T05:54:31.864Z,99787.59
2019-03-16T05:57:02.806Z,99786.18
2019-03-16T05:59:34.033Z,99785.63
2019-03-16T06:02:05.050Z,99787.90
2019-03-16T06:04:36.226Z,99787.03
2019-03-16T06:07:07.377Z,99789.03
2019-03-16T06:09:38.521Z,99789.83
2019-03-16T06:12:09.451Z,99788.28
2019-03-16T06:14:40.360Z,99788.28
2019-03-16T06:17:12.149Z,99796.16
2019-03-16T06:19:43.573Z,99782.39
2019-03-16T06:22:14.538Z,99785.56
2019-03-16T06:24:45.521Z,99787.45
2019-03-16T06:27:16.709Z,99778.53
2019-03-16T06:29:47.618Z,99781.08
2019-03-16T06:32:18.631Z,99779.77
2019-03-16T06:34:49.528Z,99786.00
2019-03-16T06:37:20.610Z,99782.33
2019-03-16T06:39:51.535Z,99773.34
2019-03-16T06:42:22.474Z,99776.41
2019-03-16T06:44:53.306Z,99778.50
2019-03-16T06:47:24.260Z,99779.34
2019-03-16T06:49:55.186Z,99782.67
2019-03-16T06:52:26.555Z,99779.03
2019-03-16T06:54:57.560Z,99778.87
2019-03-16T06:57:28.441Z,99777.84
2019-03-16T06:59:59.960Z,99788.36
2019-03-16T07:02:31.253Z,99787.38
2019-03-16T07:05:04.376Z,99779.16
2019-03-16T07:07:36.387Z,99792.90
2019-03-16T07:10:08.386Z,99787.48
2019-03-16T07:12:39.365Z,99786.16
2019-03-16T07:15:10.352Z,99791.34
2019-03-16T07:17:41.571Z,99790.75
2019-03-16T07:20:13.648Z,99803.04
2019-03-16T07:22:44.714Z,99811.39
2019-03-16T07:25:16.022Z,99809.30
2019-03-16T07:27:46.973Z,99815.12
2019-03-16T07:30:18.803Z,99819.44
2019-03-16T07:32:49.767Z,99812.89
2019-03-16T07:35:20.982Z,99824.25
2019-03-16T07:37:51.843Z,99839.83
2019-03-16T07:40:22.764Z,99825.16
2019-03-16T07:42:53.627Z,99836.38
2019-03-16T07:45:24.535Z,99849.32
2019-03-16T07:47:55.479Z,99850.81
2019-03-16T07:53:02.995Z,99862.66
2019-03-16T07:55:35.157Z,99860.74
2019-03-16T07:58:07.501Z,99869.59
2019-03-16T08:00:38.441Z,99869.59
2019-03-16T08:03:09.412Z,99885.95
2019-03-16T08:05:40.367Z,99888.55
2019-03-16T08:08:11.343Z,99898.45
2019-03-16T08:10:42.500Z,99900.28
2019-03-16T08:13:14.417Z,99898.48
2019-03-16T08:15:45.926Z,99887.70
2019-03-16T08:18:16.872Z,99893.13
2019-03-16T08:20:47.837Z,99893.13
2019-03-16T08:23:18.743Z,99900.02
2019-03-16T08:25:50.893Z,99902.08
2019-03-16T08:28:21.806Z,99893.03
2019-03-16T08:30:52.642Z,99903.12
2019-03-16T08:33:23.838Z,99900.08
2019-03-16T08:35:55.075Z,99889.16
2019-03-16T08:38:25.945Z,99892.36
2019-03-16T08:40:56.816Z,99885.14
2019-03-16T08:43:27.695Z,99884.73
2019-03-16T08:45:58.522Z,99879.38
2019-03-16T08:48:29.429Z,99882.17
2019-03-16T08:51:00.266Z,99890.55
2019-03-16T08:53:31.126Z,99879.33
2019-03-16T08:56:02.049Z,99871.95
2019-03-16T08:58:34.779Z,99872.80
2019-03-16T09:01:05.609Z,99872.17
2019-03-16T09:03:43.522Z,99872.31
2019-03-16T09:06:09.181Z,99878.70
2019-03-16T09:08:40.043Z,99873.98
2019-03-16T09:11:10.898Z,99874.18
2019-03-16T09:13:41.946Z,99872.94
2019-03-16T09:16:12.971Z,99871.58
2019-03-16T09:18:44.057Z,99874.39
2019-03-16T09:21:15.466Z,99873.09
2019-03-16T09:23:46.468Z,99872.61
2019-03-16T09:26:18.011Z,99870.59
2019-03-16T09:28:59.635Z,99860.45
2019-03-16T09:31:21.786Z,99858.91
2019-03-16T09:33:52.926Z,99857.66
2019-03-16T09:36:23.767Z,99835.66
2019-03-16T09:38:54.628Z,99849.20
2019-03-16T09:41:25.527Z,99851.90
2019-03-16T09:43:56.640Z,99847.68
2019-03-16T09:46:27.525Z,99840.87
2019-03-16T09:48:58.658Z,99833.04
2019-03-16T09:51:29.488Z,99833.37
2019-03-16T09:54:00.425Z,99830.73
2019-03-16T09:56:32.021Z,99830.56
2019-03-16T09:59:02.866Z,99831.02
2019-03-16T10:01:35.071Z,99829.16
2019-03-16T10:04:05.916Z,99830.92
2019-03-16T10:06:37.089Z,99829.19
2019-03-16T10:09:09.107Z,99822.52
2019-03-16T10:11:39.957Z,99820.00
2019-03-16T10:14:10.780Z,99819.00
2019-03-16T10:16:41.712Z,99813.56
2019-03-16T10:19:14.051Z,99810.07
2019-03-16T10:21:45.216Z,99789.84
2019-03-16T10:24:16.048Z,99789.84
2019-03-16T10:26:47.154Z,99779.97
2019-03-16T10:29:18.411Z,99770.89
2019-03-16T10:31:49.298Z,99764.50
2019-03-16T10:34:20.152Z,99760.16
2019-03-16T10:36:53.378Z,99757.91
2019-03-16T10:39:24.489Z,99742.50
2019-03-16T10:41:55.691Z,99735.03
2019-03-16T10:44:26.519Z,99739.80
2019-03-16T10:46:57.395Z,99734.34
2019-03-16T10:49:28.715Z,99725.59
2019-03-16T10:52:00.011Z,99717.89
2019-03-16T10:54:31.099Z,99712.34
2019-03-16T10:57:04.275Z,99701.69
2019-03-16T10:59:37.300Z,99700.05
2019-03-16T11:02:08.600Z,99693.13
2019-03-16T11:04:39.417Z,99691.20
2019-03-16T11:07:10.246Z,99680.65
2019-03-16T11:09:41.572Z,99674.33
2019-03-16T11:12:12.396Z,99670.29
2019-03-16T11:14:43.382Z,99659.09
2019-03-16T11:17:14.428Z,99668.60
2019-03-16T11:19:46.003Z,99658.63
2019-03-16T11:22:16.847Z,99635.05
2019-03-16T11:24:48.267Z,99637.74
2019-03-16T11:27:19.605Z,99632.38
2019-03-16T11:29:50.713Z,99640.67
2019-03-16T11:32:21.912Z,99639.14
2019-03-16T11:34:52.759Z,99640.45
2019-03-16T11:37:24.767Z,99625.94
2019-03-16T11:39:55.948Z,99612.77
2019-03-16T11:42:26.781Z,99603.20
2019-03-16T11:44:57.721Z,99596.95
2019-03-16T11:47:31.344Z,99597.58
2019-03-16T11:50:04.258Z,99591.86
2019-03-16T11:52:37.912Z,99587.09
2019-03-16T11:55:09.205Z,99589.17
2019-03-16T11:57:40.276Z,99593.81
2019-03-16T12:00:11.289Z,99598.05
2019-03-16T12:02:42.445Z,99600.35
2019-03-16T12:05:13.507Z,99580.62
2019-03-16T12:07:44.784Z,99566.69
2019-03-16T12:10:16.420Z,99554.19
2019-03-16T12:12:50.423Z,99550.32
2019-03-16T12:15:21.379Z,99541.61
2019-03-16T12:17:52.445Z,99542.75
2019-03-16T12:20:23.416Z,99540.47
2019-03-16T12:22:54.285Z,99548.84
2019-03-16T12:25:25.271Z,99552.77
2019-03-16T12:27:56.132Z,99548.32
2019-03-16T12:30:27.124Z,99532.45
2019-03-16T12:32:57.967Z,99533.83
2019-03-16T12:35:28.917Z,99530.31
2019-03-16T12:38:01.977Z,99522.56
2019-03-16T12:40:36.301Z,99517.02
2019-03-16T12:43:07.283Z,99509.72
2019-03-16T12:45:38.147Z,99509.85
2019-03-16T12:48:09.388Z,99502.55
2019-03-16T12:50:41.657Z,99499.92
2019-03-16T12:53:13.176Z,99501.51
2019-03-16T12:55:44.332Z,99502.75
2019-03-16T12:58:15.317Z,99494.73
2019-03-16T13:00:46.358Z,99489.04
2019-03-16T13:03:17.298Z,99490.50
2019-03-16T13:05:48.173Z,99488.89
2019-03-16T13:08:19.902Z,99479.01
2019-03-16T13:10:50.759Z,99474.66
2019-03-16T13:13:21.827Z,99471.97
2019-03-16T13:15:52.875Z,99461.70
2019-03-16T13:18:23.794Z,99463.19
2019-03-16T13:21:01.222Z,99452.05
2019-03-16T13:23:39.535Z,99444.17
2019-03-16T13:26:14.115Z,99441.91
2019-03-16T13:28:44.966Z,99436.57
2019-03-16T13:31:15.936Z,99430.17
2019-03-16T13:33:47.809Z,99427.06
2019-03-16T13:36:18.668Z,99420.30
2019-03-16T13:38:49.979Z,99417.06
2019-03-16T13:41:21.348Z,99411.98
2019-03-16T13:43:52.391Z,99404.63
2019-03-16T13:46:23.513Z,99399.34
2019-03-16T13:48:54.726Z,99404.56
2019-03-16T13:51:25.541Z,99403.73
2019-03-16T13:53:56.655Z,99400.45
2019-03-16T13:56:27.597Z,99398.39
2019-03-16T13:58:58.791Z,99380.50
2019-03-16T14:01:29.673Z,99385.80
2019-03-16T14:04:03.056Z,99387.95
2019-03-16T14:06:33.470Z,99373.34
2019-03-16T14:09:06.628Z,99373.34
2019-03-16T14:11:41.135Z,99376.94
2019-03-16T14:14:11.622Z,99370.55
2019-03-16T14:16:42.510Z,99367.52
2019-03-16T14:19:13.397Z,99369.09
2019-03-16T14:21:44.440Z,99370.47
2019-03-16T14:24:15.802Z,99380.22
2019-03-16T14:26:46.977Z,99378.16
2019-03-16T14:29:18.124Z,99382.38
2019-03-16T14:31:51.265Z,99373.81
2019-03-16T14:34:22.137Z,99377.45
2019-03-16T14:36:53.113Z,99371.42
2019-03-16T14:39:23.995Z,99352.10
2019-03-16T14:41:55.232Z,99354.59
2019-03-16T14:44:26.737Z,99360.43
2019-03-16T14:46:57.596Z,99346.88
2019-03-16T14:49:28.521Z,99346.16
2019-03-16T14:51:59.643Z,99346.16
2019-03-16T14:54:30.557Z,99364.08
2019-03-16T14:57:02.076Z,99368.69
2019-03-16T14:59:34.300Z,99362.33
2019-03-16T15:02:05.228Z,99372.07
2019-03-16T15:04:36.309Z,99358.53
2019-03-16T15:07:07.165Z,99361.42
2019-03-16T15:09:38.015Z,99358.30
2019-03-16T15:12:08.923Z,99336.59
2019-03-16T15:14:39.939Z,99342.34
2019-03-16T15:17:10.920Z,99337.66
2019-03-16T15:19:42.079Z,99342.46
2019-03-16T15:22:13.429Z,99342.70
2019-03-16T15:24:44.278Z,99348.71
2019-03-16T15:27:16.062Z,99343.52
2019-03-16T15:29:47.381Z,99359.22
2019-03-16T15:32:18.450Z,99345.63
2019-03-16T15:34:49.375Z,99339.45
2019-03-16T15:37:20.913Z,99339.45
2019-03-16T15:39:52.346Z,99356.72
2019-03-16T15:42:23.305Z,99352.23
2019-03-16T15:44:54.255Z,99345.73
2019-03-16T15:47:25.228Z,99347.39
2019-03-16T15:49:58.495Z,99336.48
2019-03-16T15:52:29.110Z,99332.60
2019-03-16T15:55:00.469Z,99325.41
2019-03-16T15:57:31.717Z,99322.55
2019-03-16T16:00:02.539Z,99327.23
2019-03-16T16:02:34.901Z,99320.16
2019-03-16T16:05:06.179Z,99318.92
2019-03-16T16:07:37.086Z,99324.84
2019-03-16T16:10:09.306Z,99322.06
2019-03-16T16:12:40.433Z,99334.53
2019-03-16T16:15:11.540Z,99323.17
2019-03-16T16:17:42.448Z,99333.86
2019-03-16T16:20:13.457Z,99332.63
2019-03-16T16:22:44.364Z,99332.14
2019-03-16T16:25:15.572Z,99336.83
2019-03-16T16:27:46.418Z,99334.04
2019-03-16T16:30:17.357Z,99325.41
2019-03-16T16:32:48.249Z,99332.37
2019-03-16T16:35:21.031Z,99354.88
2019-03-16T16:37:51.933Z,99341.55
2019-03-16T16:40:23.270Z,99338.14
2019-03-16T16:42:54.597Z,99335.50
2019-03-16T16:45:25.500Z,99342.11
2019-03-16T16:47:56.589Z,99337.31
2019-03-16T16:50:27.478Z,99342.77
2019-03-16T16:52:58.689Z,99333.88
2019-03-16T16:55:29.635Z,99324.03
2019-03-16T16:58:00.465Z,99313.13
2019-03-16T17:00:31.796Z,99321.25
2019-03-16T17:03:02.977Z,99314.64
2019-03-16T17:05:36.761Z,99309.04
2019-03-16T17:08:07.605Z,99280.41
2019-03-16T17:10:38.885Z,99315.69
2019-03-16T17:13:09.817Z,99297.05
2019-03-16T17:15:40.938Z,99294.56
2019-03-16T17:18:12.221Z,99294.56
2019-03-16T17:20:43.130Z,99289.63
2019-03-16T17:23:14.022Z,99288.31
2019-03-16T17:25:45.102Z,99293.34
2019-03-16T17:28:16.325Z,99293.83
2019-03-16T17:30:47.170Z,99296.81
2019-03-16T17:33:18.118Z,99298.36
2019-03-16T17:35:49.278Z,99294.75
2019-03-16T17:38:20.167Z,99299.45
2019-03-16T17:40:51.104Z,99296.64
2019-03-16T17:43:22.024Z,99297.53
2019-03-16T17:45:53.021Z,99306.30
2019-03-16T17:48:24.650Z,99293.56
2019-03-16T17:50:55.795Z,99288.88
2019-03-16T17:53:26.667Z,99289.36
2019-03-16T17:55:57.835Z,99288.88
2019-03-16T17:58:29.006Z,99287.05
2019-03-16T18:00:59.863Z,99292.52
2019-03-16T18:03:30.819Z,99296.06
2019-03-16T18:06:04.794Z,99287.31
2019-03-16T18:08:36.068Z,99291.52
2019-03-16T18:11:07.365Z,99287.30
2019-03-16T18:13:38.235Z,99298.69
2019-03-16T18:16:09.092Z,99290.36
2019-03-16T18:18:39.932Z,99293.34
2019-03-16T18:21:10.837Z,99284.19
2019-03-16T18:23:41.686Z,99281.30
2019-03-16T18:26:12.654Z,99285.41
2019-03-16T18:28:43.764Z,99286.38
2019-03-16T18:31:14.811Z,99255.73
2019-03-16T18:33:45.708Z,99276.66
2019-03-16T18:36:16.856Z,99290.84
2019-03-16T18:38:47.785Z,99291.23
2019-03-16T18:41:18.760Z,99285.56
2019-03-16T18:43:49.833Z,99285.81
2019-03-16T18:46:21.307Z,99288.84
2019-03-16T18:48:52.252Z,99285.96
2019-03-16T18:51:23.139Z,99278.14
2019-03-16T18:53:53.980Z,99280.19
2019-03-16T18:56:25.526Z,99277.20
2019-03-16T18:58:56.416Z,99265.80
2019-03-16T19:01:27.502Z,99274.17
2019-03-16T19:03:58.424Z,99281.75
2019-03-16T19:06:30.367Z,99268.20
2019-03-16T19:09:02.758Z,99278.63
2019-03-16T19:11:37.451Z,99276.84
2019-03-16T19:14:08.354Z,99274.55
2019-03-16T19:16:39.486Z,99244.87
2019-03-16T19:19:10.375Z,99281.16
2019-03-16T19:21:41.463Z,99282.62
2019-03-16T19:24:12.377Z,99267.12
2019-03-16T19:26:43.452Z,99274.31
2019-03-16T19:29:16.817Z,99280.33
2019-03-16T19:31:48.005Z,99276.47
2019-03-16T19:34:19.394Z,99271.08
2019-03-16T19:36:50.804Z,99261.83
2019-03-16T19:39:24.999Z,99271.22
2019-03-16T19:41:55.619Z,99262.56
2019-03-16T19:44:26.568Z,99257.62
2019-03-16T19:46:57.573Z,99243.69
2019-03-16T19:49:28.450Z,99256.79
2019-03-16T19:51:59.687Z,99249.35
2019-03-16T19:54:30.700Z,99258.95
2019-03-16T19:57:15.425Z,99256.30
2019-03-16T19:59:38.716Z,99252.23
2019-03-16T20:02:09.820Z,99247.30
2019-03-16T20:04:40.859Z,99250.53
2019-03-16T20:07:19.189Z,99254.50
2019-03-16T20:09:44.938Z,99237.19
2019-03-16T20:12:16.512Z,99249.56
2019-03-16T20:14:47.517Z,99255.33
2019-03-16T20:17:18.976Z,99244.77
2019-03-16T20:19:49.920Z,99245.39
2019-03-16T20:22:21.081Z,99248.97
2019-03-16T20:24:52.345Z,99246.81
2019-03-16T20:27:23.372Z,99245.73
2019-03-16T20:29:55.670Z,99259.67
2019-03-16T20:32:27.565Z,99243.34
2019-03-16T20:34:58.750Z,99250.29
2019-03-16T20:37:29.964Z,99255.33
2019-03-16T20:40:01.064Z,99242.47
2019-03-16T20:42:31.967Z,99248.27
2019-03-16T20:45:05.696Z,99252.83
2019-03-16T20:47:36.617Z,99253.17
2019-03-16T20:50:09.495Z,99259.44
2019-03-16T20:52:40.592Z,99252.58
2019-03-16T20:55:11.514Z,99257.14
2019-03-16T20:57:42.387Z,99247.16
2019-03-16T21:00:13.341Z,99256.55
2019-03-16T21:02:44.399Z,99243.09
2019-03-16T21:05:15.352Z,99250.32
2019-03-16T21:07:46.374Z,99250.29
2019-03-16T21:10:17.478Z,99242.36
2019-03-16T21:12:48.565Z,99237.19
2019-03-16T21:15:22.557Z,99230.96
2019-03-16T21:17:55.793Z,99224.47
2019-03-16T21:20:26.537Z,99216.19
2019-03-16T21:22:57.516Z,99213.44
2019-03-16T21:25:28.435Z,99222.79
2019-03-16T21:28:00.991Z,99214.14
2019-03-16T21:30:33.843Z,99204.55
2019-03-16T21:33:04.681Z,99215.22
2019-03-16T21:35:35.611Z,99209.58
2019-03-16T21:38:06.591Z,99220.39
2019-03-16T21:40:38.704Z,99231.66
2019-03-16T21:43:09.689Z,99228.56
2019-03-16T21:45:40.575Z,99217.86
2019-03-16T21:48:11.647Z,99215.81
2019-03-16T21:50:42.583Z,99226.27
2019-03-16T21:53:13.495Z,99207.30
2019-03-16T21:55:44.560Z,99213.55
2019-03-16T21:58:15.577Z,99215.92
2019-03-16T22:00:46.563Z,99208.27
2019-03-16T22:03:17.449Z,99196.97
2019-03-16T22:05:48.343Z,99203.33
2019-03-16T22:08:20.147Z,99192.63
2019-03-16T22:10:51.320Z,99188.31
2019-03-16T22:13:22.444Z,99186.75
2019-03-16T22:15:53.414Z,99194.20
2019-03-16T22:18:24.767Z,99188.20
2019-03-16T22:20:55.601Z,99181.70
2019-03-16T22:23:26.454Z,99175.59
2019-03-16T22:25:59.736Z,99179.91
2019-03-16T22:28:30.585Z,99178.94
2019-03-16T22:31:03.824Z,99163.44
2019-03-16T22:33:35.030Z,99164.17
2019-03-16T22:36:05.884Z,99153.37
2019-03-16T22:38:36.784Z,99154.55
2019-03-16T22:41:07.936Z,99145.55
2019-03-16T22:43:38.735Z,99161.26
2019-03-16T22:46:10.239Z,99157.78
2019-03-16T22:48:41.394Z,99147.81
2019-03-16T22:51:12.800Z,99153.37
2019-03-16T22:53:43.640Z,99145.77
2019-03-16T22:56:14.553Z,99147.57
2019-03-16T22:58:45.491Z,99141.21
2019-03-16T23:01:16.660Z,99128.50
2019-03-16T23:03:47.910Z,99127.77
2019-03-16T23:06:18.805Z,99116.72
2019-03-16T23:08:51.176Z,99118.63
2019-03-16T23:11:22.005Z,99106.13
2019-03-16T23:13:52.931Z,99098.59
2019-03-16T23:16:24.062Z,99085.53
2019-03-16T23:18:54.956Z,99090.92
2019-03-16T23:21:26.382Z,99073.48
2019-03-16T23:23:57.501Z,99073.48
2019-03-16T23:26:38.031Z,99077.20
2019-03-16T23:29:01.556Z,99070.72
2019-03-16T23:31:32.425Z,99069.16
2019-03-16T23:34:18.336Z,99060.51
2019-03-16T23:36:38.557Z,99062.55
2019-03-16T23:39:09.510Z,99073.45
2019-03-16T23:41:40.339Z,99071.55
2019-03-16T23:44:11.654Z,99061.23
2019-03-16T23:46:42.578Z,99074.08
2019-03-16T23:49:14.852Z,99073.98
2019-03-16T23:51:45.998Z,99073.11
2019-03-16T23:54:16.876Z,99058.06
2019-03-16T23:56:47.835Z,99051.46
2019-03-16T23:59:18.740Z,99055.15
